createdAt,value
2019-03-31T00:01:40.248Z,4.93
2019-03-31T00:03:46.909Z,4.93
2019-03-31T00:05:53.572Z,4.91
2019-03-31T00:08:00.263Z,4.89
2019-03-31T00:10:08.834Z,4.89
2019-03-31T00:12:15.514Z,4.89
2019-03-31T00:14:22.210Z,4.87
2019-03-31T00:16:28.891Z,4.86
2019-03-31T00:18:35.596Z,4.86
2019-03-31T00:20:42.455Z,4.86
2019-03-31T00:22:49.122Z,4.88
2019-03-31T00:24:55.787Z,4.91
2019-03-31T00:27:02.523Z,4.94
2019-03-31T00:29:09.203Z,4.98
2019-03-31T00:31:22.126Z,4.99
2019-03-31T00:33:24.343Z,4.97
2019-03-31T00:35:31.086Z,4.99
2019-03-31T00:37:37.757Z,4.98
2019-03-31T00:39:44.453Z,4.99
2019-03-31T00:41:51.127Z,5.02
2019-03-31T00:43:57.784Z,5.04
2019-03-31T00:46:04.486Z,5.04
2019-03-31T00:48:11.164Z,5.05
2019-03-31T00:50:17.830Z,5.06
2019-03-31T00:52:24.526Z,5.07
2019-03-31T00:54:31.194Z,5.05
2019-03-31T00:56:37.927Z,5.03
2019-03-31T00:58:44.622Z,5.03
2019-03-31T01:00:53.067Z,5.04
2019-03-31T01:03:01.346Z,5.02
2019-03-31T01:05:08.130Z,5.03
2019-03-31T01:07:15.266Z,5.03
2019-03-31T01:09:26.721Z,5.04
2019-03-31T01:11:33.485Z,5.03
2019-03-31T01:13:40.515Z,5.00
2019-03-31T01:15:47.570Z,4.99
2019-03-31T01:17:55.063Z,4.97
2019-03-31T01:20:01.796Z,4.95
2019-03-31T01:22:09.060Z,4.98
2019-03-31T01:24:15.826Z,5.00
2019-03-31T01:26:23.363Z,5.01
2019-03-31T01:28:30.028Z,5.01
2019-03-31T01:30:36.912Z,5.03
2019-03-31T01:32:43.649Z,5.05
2019-03-31T01:34:50.453Z,5.09
2019-03-31T01:36:57.213Z,5.06
2019-03-31T01:39:05.757Z,5.05
2019-03-31T01:41:14.090Z,5.05
2019-03-31T01:43:20.986Z,5.04
2019-03-31T01:45:28.225Z,5.01
2019-03-31T01:47:34.895Z,4.96
2019-03-31T01:49:41.648Z,4.91
2019-03-31T01:51:49.198Z,4.86
2019-03-31T01:53:55.939Z,4.85
2019-03-31T01:56:02.629Z,4.84
2019-03-31T01:58:09.290Z,4.81
2019-03-31T02:00:27.596Z,4.78
2019-03-31T02:02:34.462Z,4.76
2019-03-31T02:04:41.197Z,4.75
2019-03-31T02:06:48.948Z,4.75
2019-03-31T02:08:55.634Z,4.73
2019-03-31T02:11:02.999Z,4.73
2019-03-31T02:13:10.870Z,4.72
2019-03-31T02:15:17.645Z,4.72
2019-03-31T02:17:24.309Z,4.68
2019-03-31T02:19:30.985Z,4.64
2019-03-31T02:21:37.671Z,4.62
2019-03-31T02:23:44.435Z,4.59
2019-03-31T02:25:51.100Z,4.59
2019-03-31T02:27:57.809Z,4.58
2019-03-31T02:30:06.260Z,4.55
2019-03-31T02:32:23.383Z,4.52
2019-03-31T02:34:22.475Z,4.51
2019-03-31T02:36:29.141Z,4.49
2019-03-31T02:38:35.947Z,4.48
2019-03-31T02:40:42.813Z,4.47
2019-03-31T02:42:49.488Z,4.47
2019-03-31T02:44:56.108Z,4.44
2019-03-31T02:47:02.859Z,4.39
2019-03-31T02:49:09.520Z,4.34
2019-03-31T02:51:16.191Z,4.36
2019-03-31T02:53:22.960Z,4.36
2019-03-31T02:55:29.660Z,4.34
2019-03-31T02:57:36.794Z,4.33
2019-03-31T02:59:44.413Z,4.30
2019-03-31T03:01:53.367Z,4.30
2019-03-31T03:04:02.136Z,4.28
2019-03-31T03:06:12.615Z,4.28
2019-03-31T03:08:20.979Z,4.26
2019-03-31T03:10:30.457Z,4.25
2019-03-31T03:12:40.115Z,4.23
2019-03-31T03:14:50.495Z,4.22
2019-03-31T03:16:57.148Z,4.21
2019-03-31T03:19:04.102Z,4.20
2019-03-31T03:21:10.865Z,4.20
2019-03-31T03:23:17.675Z,4.20
2019-03-31T03:25:24.660Z,4.19
2019-03-31T03:27:31.514Z,4.18
2019-03-31T03:29:38.307Z,4.17
2019-03-31T03:31:45.080Z,4.15
2019-03-31T03:33:51.860Z,4.15
2019-03-31T03:35:58.756Z,4.15
2019-03-31T03:38:05.531Z,4.16
2019-03-31T03:40:13.509Z,4.19
2019-03-31T03:42:20.190Z,4.16
2019-03-31T03:44:26.881Z,4.17
2019-03-31T03:46:33.923Z,4.15
2019-03-31T03:48:40.658Z,4.15
2019-03-31T03:50:47.426Z,4.12
2019-03-31T03:52:54.186Z,4.09
2019-03-31T03:55:00.922Z,4.09
2019-03-31T03:57:07.726Z,4.10
2019-03-31T03:59:14.464Z,4.12
2019-03-31T04:01:21.352Z,4.10
2019-03-31T04:03:30.486Z,4.09
2019-03-31T04:05:36.599Z,4.08
2019-03-31T04:07:43.376Z,4.06
2019-03-31T04:09:50.090Z,4.06
2019-03-31T04:11:56.760Z,4.06
2019-03-31T04:14:03.426Z,4.06
2019-03-31T04:16:10.310Z,4.06
2019-03-31T04:18:16.974Z,4.06
2019-03-31T04:20:23.622Z,4.06
2019-03-31T04:22:30.310Z,4.11
2019-03-31T04:24:37.052Z,4.17
2019-03-31T04:26:43.716Z,4.22
2019-03-31T04:28:50.390Z,4.26
2019-03-31T04:30:57.170Z,4.30
2019-03-31T04:33:03.908Z,4.33
2019-03-31T04:35:10.606Z,4.37
2019-03-31T04:37:17.276Z,4.41
2019-03-31T04:39:24.007Z,4.46
2019-03-31T04:41:30.692Z,4.49
2019-03-31T04:43:37.436Z,4.55
2019-03-31T04:45:44.095Z,4.59
2019-03-31T04:47:50.788Z,4.71
2019-03-31T04:49:57.447Z,4.89
2019-03-31T04:52:04.113Z,5.01
2019-03-31T04:54:10.816Z,5.09
2019-03-31T04:56:17.545Z,5.16
2019-03-31T04:58:24.203Z,5.21
2019-03-31T05:00:30.890Z,5.31
2019-03-31T05:02:37.715Z,5.42
2019-03-31T05:04:44.494Z,5.48
2019-03-31T05:06:51.181Z,5.59
2019-03-31T05:08:57.909Z,5.73
2019-03-31T05:11:05.541Z,5.89
2019-03-31T05:13:12.230Z,6.07
2019-03-31T05:15:18.971Z,6.33
2019-03-31T05:17:25.652Z,7.32
2019-03-31T05:19:32.400Z,9.11
2019-03-31T05:21:39.133Z,10.78
2019-03-31T05:23:45.803Z,12.21
2019-03-31T05:25:52.492Z,13.23
2019-03-31T05:27:59.330Z,13.62
2019-03-31T05:30:07.613Z,14.53
2019-03-31T05:32:14.406Z,15.59
2019-03-31T05:34:21.147Z,16.39
2019-03-31T05:36:27.815Z,17.21
2019-03-31T05:38:34.507Z,17.90
2019-03-31T05:40:42.174Z,18.51
2019-03-31T05:42:48.844Z,19.23
2019-03-31T05:44:55.607Z,19.81
2019-03-31T05:47:02.273Z,20.18
2019-03-31T05:49:08.945Z,20.79
2019-03-31T05:51:15.642Z,21.29
2019-03-31T05:53:22.387Z,21.57
2019-03-31T05:55:29.058Z,22.12
2019-03-31T05:57:35.792Z,22.67
2019-03-31T05:59:42.453Z,23.39
2019-03-31T06:01:49.196Z,23.62
2019-03-31T06:03:55.897Z,23.71
2019-03-31T06:06:02.624Z,24.07
2019-03-31T06:08:09.294Z,24.90
2019-03-31T06:10:16.065Z,25.12
2019-03-31T06:12:22.740Z,25.35
2019-03-31T06:14:29.490Z,25.73
2019-03-31T06:16:36.186Z,25.87
2019-03-31T06:18:42.934Z,26.24
2019-03-31T06:20:49.538Z,26.82
2019-03-31T06:22:56.235Z,27.10
2019-03-31T06:25:02.908Z,27.69
2019-03-31T06:27:09.572Z,28.07
2019-03-31T06:29:16.364Z,27.87
2019-03-31T06:31:23.104Z,28.27
2019-03-31T06:33:29.774Z,28.10
2019-03-31T06:35:36.474Z,28.70
2019-03-31T06:37:43.158Z,29.13
2019-03-31T06:39:50.926Z,29.53
2019-03-31T06:41:57.679Z,29.79
2019-03-31T06:44:04.442Z,30.29
2019-03-31T06:46:11.125Z,30.15
2019-03-31T06:48:17.840Z,30.30
2019-03-31T06:50:24.508Z,30.59
2019-03-31T06:52:31.180Z,31.24
2019-03-31T06:54:37.879Z,31.51
2019-03-31T06:56:47.097Z,31.92
2019-03-31T06:58:54.935Z,31.53
2019-03-31T07:01:01.926Z,32.06
2019-03-31T07:03:08.597Z,32.38
2019-03-31T07:05:15.264Z,32.26
2019-03-31T07:07:23.807Z,32.45
2019-03-31T07:09:30.319Z,32.52
2019-03-31T07:11:36.991Z,32.44
2019-03-31T07:13:43.689Z,32.74
2019-03-31T07:15:50.358Z,33.14
2019-03-31T07:17:57.020Z,33.75
2019-03-31T07:20:05.140Z,33.58
2019-03-31T07:22:11.809Z,33.65
2019-03-31T07:24:18.598Z,33.48
2019-03-31T07:26:25.286Z,33.35
2019-03-31T07:28:31.958Z,33.89
2019-03-31T07:30:38.642Z,33.72
2019-03-31T07:32:45.336Z,33.59
2019-03-31T07:34:52.012Z,33.75
2019-03-31T07:36:58.685Z,33.78
2019-03-31T07:39:07.317Z,33.83
2019-03-31T07:41:14.255Z,34.06
2019-03-31T07:43:22.166Z,33.74
2019-03-31T07:45:28.856Z,32.56
2019-03-31T07:47:35.609Z,30.61
2019-03-31T07:49:42.380Z,27.82
2019-03-31T07:51:49.072Z,25.76
2019-03-31T07:53:56.745Z,24.10
2019-03-31T07:56:03.549Z,23.24
2019-03-31T07:58:10.352Z,22.33
2019-03-31T08:00:20.614Z,21.40
2019-03-31T08:02:27.283Z,21.08
2019-03-31T08:04:34.043Z,20.60
2019-03-31T08:06:40.714Z,20.47
2019-03-31T08:08:47.446Z,20.41
2019-03-31T08:10:54.220Z,20.17
2019-03-31T08:13:00.969Z,19.98
2019-03-31T08:15:11.769Z,19.99
2019-03-31T08:17:18.526Z,20.01
2019-03-31T08:19:25.233Z,19.98
2019-03-31T08:21:31.901Z,19.82
2019-03-31T08:23:38.640Z,19.79
2019-03-31T08:25:45.304Z,19.61
2019-03-31T08:27:51.970Z,19.58
2019-03-31T08:30:00.787Z,19.33
2019-03-31T08:32:07.123Z,19.52
2019-03-31T08:34:13.866Z,19.47
2019-03-31T08:36:20.565Z,19.16
2019-03-31T08:38:27.239Z,18.78
2019-03-31T08:40:33.912Z,18.93
2019-03-31T08:42:40.610Z,18.79
2019-03-31T08:44:47.281Z,19.01
2019-03-31T08:46:54.016Z,19.18
2019-03-31T08:49:00.716Z,19.21
2019-03-31T08:51:07.451Z,19.20
2019-03-31T08:53:14.126Z,19.41
2019-03-31T08:55:20.825Z,19.79
2019-03-31T08:57:27.507Z,19.90
2019-03-31T08:59:34.174Z,19.97
2019-03-31T09:01:41.045Z,20.01
2019-03-31T09:03:47.712Z,19.89
2019-03-31T09:06:01.475Z,19.76
2019-03-31T09:08:02.788Z,19.65
2019-03-31T09:10:11.615Z,19.52
2019-03-31T09:12:17.410Z,19.44
2019-03-31T09:14:24.044Z,19.47
2019-03-31T09:16:30.707Z,19.55
2019-03-31T09:18:37.380Z,19.20
2019-03-31T09:20:44.091Z,19.26
2019-03-31T09:22:50.841Z,19.40
2019-03-31T09:24:57.592Z,19.25
2019-03-31T09:27:04.295Z,18.97
2019-03-31T09:29:11.041Z,19.03
2019-03-31T09:31:17.702Z,19.31
2019-03-31T09:33:24.499Z,19.33
2019-03-31T09:35:31.166Z,19.35
2019-03-31T09:37:38.002Z,19.25
2019-03-31T09:39:44.702Z,19.38
2019-03-31T09:41:51.314Z,19.46
2019-03-31T09:43:57.983Z,19.04
2019-03-31T09:46:04.678Z,18.96
2019-03-31T09:48:11.435Z,19.01
2019-03-31T09:50:19.503Z,19.03
2019-03-31T09:52:26.192Z,19.14
2019-03-31T09:54:32.949Z,19.42
2019-03-31T09:56:39.614Z,19.63
2019-03-31T09:58:46.313Z,19.84
2019-03-31T10:00:54.207Z,19.79
2019-03-31T10:03:01.203Z,19.35
2019-03-31T10:05:09.641Z,19.13
2019-03-31T10:07:16.512Z,18.81
2019-03-31T10:09:23.189Z,18.94
2019-03-31T10:11:29.881Z,18.96
2019-03-31T10:13:36.671Z,19.16
2019-03-31T10:15:43.342Z,19.56
2019-03-31T10:17:50.132Z,19.91
2019-03-31T10:19:56.904Z,19.94
2019-03-31T10:22:03.586Z,19.69
2019-03-31T10:24:11.527Z,19.83
2019-03-31T10:26:31.000Z,19.95
2019-03-31T10:28:26.767Z,19.94
2019-03-31T10:30:41.719Z,20.14
2019-03-31T10:32:48.482Z,20.21
2019-03-31T10:34:55.161Z,20.48
2019-03-31T10:37:01.859Z,20.41
2019-03-31T10:39:09.826Z,20.54
2019-03-31T10:41:16.493Z,20.70
2019-03-31T10:43:47.581Z,20.26
2019-03-31T10:45:56.417Z,20.46
2019-03-31T10:48:03.153Z,20.57
2019-03-31T10:50:10.452Z,20.63
2019-03-31T10:52:17.118Z,20.49
2019-03-31T10:54:23.789Z,20.44
2019-03-31T10:56:31.078Z,20.49
2019-03-31T10:58:38.761Z,20.55
2019-03-31T11:00:45.418Z,19.69
2019-03-31T11:02:52.114Z,19.38
2019-03-31T11:04:58.849Z,19.04
2019-03-31T11:07:05.599Z,19.29
2019-03-31T11:09:12.377Z,19.11
2019-03-31T11:11:19.035Z,19.02
2019-03-31T11:13:25.821Z,18.90
2019-03-31T11:15:32.622Z,18.99
2019-03-31T11:17:39.395Z,19.02
2019-03-31T11:19:46.055Z,19.23
2019-03-31T11:21:57.132Z,19.29
2019-03-31T11:24:03.873Z,19.44
2019-03-31T11:26:10.539Z,19.47
2019-03-31T11:28:17.240Z,19.48
2019-03-31T11:30:25.091Z,19.28
2019-03-31T11:32:31.764Z,19.23
2019-03-31T11:34:38.473Z,19.01
2019-03-31T11:36:45.139Z,18.82
2019-03-31T11:38:52.809Z,18.91
2019-03-31T11:40:59.512Z,18.73
2019-03-31T11:43:06.189Z,18.76
2019-03-31T11:45:15.121Z,18.61
2019-03-31T11:47:21.916Z,18.88
2019-03-31T11:49:28.615Z,19.05
2019-03-31T11:51:35.346Z,18.93
2019-03-31T11:53:42.113Z,19.35
2019-03-31T11:55:48.784Z,19.58
2019-03-31T11:57:55.453Z,19.75
2019-03-31T12:00:02.218Z,19.76
2019-03-31T12:02:09.050Z,19.84
2019-03-31T12:04:15.717Z,20.12
2019-03-31T12:06:22.509Z,20.05
2019-03-31T12:08:29.170Z,19.69
2019-03-31T12:10:36.214Z,19.47
2019-03-31T12:12:42.976Z,19.49
2019-03-31T12:15:00.457Z,19.13
2019-03-31T12:16:58.156Z,18.90
2019-03-31T12:19:04.859Z,18.92
2019-03-31T12:21:11.601Z,19.00
2019-03-31T12:23:18.339Z,18.95
2019-03-31T12:25:25.031Z,18.80
2019-03-31T12:28:20.359Z,19.11
2019-03-31T12:30:31.039Z,19.22
2019-03-31T12:36:18.544Z,18.76
2019-03-31T12:38:25.217Z,18.26
2019-03-31T12:40:37.199Z,18.18
2019-03-31T12:42:45.946Z,18.34
2019-03-31T12:44:52.709Z,18.23
2019-03-31T12:54:39.609Z,17.63
2019-03-31T12:56:48.053Z,17.66
2019-03-31T12:58:54.719Z,17.57
2019-03-31T13:01:02.965Z,17.50
2019-03-31T13:03:09.644Z,17.27
2019-03-31T13:24:36.721Z,16.77
2019-03-31T13:30:22.172Z,16.46
2019-03-31T13:32:29.084Z,16.49
2019-03-31T13:54:19.743Z,16.42
2019-03-31T13:56:26.838Z,16.24
2019-03-31T13:58:35.999Z,16.16
2019-03-31T14:00:43.059Z,16.18
2019-03-31T14:09:25.814Z,16.42
2019-03-31T14:11:32.553Z,16.56
2019-03-31T14:13:39.331Z,16.43
2019-03-31T14:15:46.098Z,16.49
2019-03-31T14:17:52.770Z,16.59
2019-03-31T14:19:59.508Z,16.46
2019-03-31T14:22:06.275Z,16.45
2019-03-31T14:24:12.946Z,16.48
2019-03-31T14:26:19.613Z,16.41
2019-03-31T14:28:26.312Z,16.26
2019-03-31T14:30:33.101Z,16.08
2019-03-31T14:32:39.923Z,16.01
2019-03-31T14:34:46.620Z,15.93
2019-03-31T14:36:53.297Z,15.70
2019-03-31T14:38:59.976Z,15.62
2019-03-31T14:41:06.757Z,15.47
2019-03-31T14:43:13.419Z,15.42
2019-03-31T14:45:35.181Z,15.27
2019-03-31T14:47:41.942Z,15.26
2019-03-31T14:49:48.689Z,15.19
2019-03-31T14:51:55.358Z,15.20
2019-03-31T14:54:02.123Z,15.18
2019-03-31T14:56:08.866Z,15.16
2019-03-31T14:58:15.538Z,15.25
2019-03-31T15:00:23.833Z,15.28
2019-03-31T15:02:30.506Z,15.29
2019-03-31T15:04:37.237Z,15.31
2019-03-31T15:06:44.014Z,15.27
2019-03-31T15:08:54.516Z,15.14
2019-03-31T15:10:59.091Z,15.06
2019-03-31T15:13:06.070Z,15.00
2019-03-31T15:15:12.843Z,14.97
2019-03-31T15:17:20.714Z,14.95
2019-03-31T15:19:27.517Z,14.92
2019-03-31T15:21:34.189Z,14.92
2019-03-31T15:23:40.866Z,14.82
2019-03-31T15:25:49.040Z,14.66
2019-03-31T15:27:55.785Z,14.62
2019-03-31T15:30:02.951Z,14.45
2019-03-31T15:32:10.817Z,14.37
2019-03-31T15:34:17.575Z,14.22
2019-03-31T15:36:24.264Z,14.04
2019-03-31T15:38:31.015Z,13.86
2019-03-31T15:40:37.688Z,13.81
2019-03-31T15:42:44.384Z,13.76
2019-03-31T15:44:51.200Z,13.74
2019-03-31T15:46:57.906Z,13.62
2019-03-31T15:49:04.723Z,13.50
2019-03-31T15:51:11.512Z,13.45
2019-03-31T15:53:18.178Z,13.34
2019-03-31T15:55:24.926Z,13.16
2019-03-31T15:57:31.692Z,13.16
2019-03-31T15:59:38.450Z,13.08
2019-03-31T16:01:45.258Z,13.04
2019-03-31T16:03:52.111Z,13.02
2019-03-31T16:05:58.811Z,12.98
2019-03-31T16:08:05.540Z,12.91
2019-03-31T16:10:12.515Z,12.83
2019-03-31T16:12:21.256Z,12.80
2019-03-31T16:14:29.288Z,12.74
2019-03-31T16:16:35.991Z,12.72
2019-03-31T16:18:42.738Z,12.71
2019-03-31T16:20:51.280Z,12.68
2019-03-31T16:22:58.858Z,12.65
2019-03-31T16:25:12.011Z,12.65
2019-03-31T16:27:18.739Z,12.67
2019-03-31T16:29:25.503Z,12.65
2019-03-31T16:31:32.202Z,12.66
2019-03-31T16:33:40.741Z,12.61
2019-03-31T16:35:49.145Z,12.51
2019-03-31T16:37:55.863Z,12.33
2019-03-31T16:40:02.689Z,12.20
2019-03-31T16:42:10.010Z,12.08
2019-03-31T16:44:16.746Z,11.95
2019-03-31T16:46:23.499Z,11.87
2019-03-31T16:48:30.202Z,11.76
2019-03-31T16:50:36.937Z,11.63
2019-03-31T16:52:43.701Z,11.55
2019-03-31T16:54:51.650Z,11.42
2019-03-31T16:56:59.314Z,11.34
2019-03-31T16:59:06.063Z,11.27
2019-03-31T17:01:12.848Z,11.21
2019-03-31T17:03:19.525Z,11.13
2019-03-31T17:05:26.262Z,11.05
2019-03-31T17:07:33.074Z,10.99
2019-03-31T17:09:50.959Z,10.92
2019-03-31T17:11:48.175Z,10.82
2019-03-31T17:13:55.019Z,10.76
2019-03-31T17:16:01.874Z,10.67
2019-03-31T17:18:08.674Z,10.60
2019-03-31T17:20:15.576Z,10.54
2019-03-31T17:22:22.308Z,10.52
2019-03-31T17:24:29.005Z,10.44
2019-03-31T17:26:35.747Z,10.37
2019-03-31T17:28:42.532Z,10.33
2019-03-31T17:30:49.378Z,10.31
2019-03-31T17:32:56.086Z,10.25
2019-03-31T17:35:02.826Z,10.23
2019-03-31T17:37:09.642Z,10.16
2019-03-31T17:39:16.542Z,10.12
2019-03-31T17:41:23.330Z,10.05
2019-03-31T17:43:31.422Z,9.97
2019-03-31T17:45:38.316Z,9.90
2019-03-31T17:47:45.146Z,9.83
2019-03-31T17:49:51.843Z,9.75
2019-03-31T17:52:01.360Z,9.69
2019-03-31T17:54:08.332Z,9.62
2019-03-31T17:56:15.069Z,9.53
2019-03-31T17:58:23.224Z,9.46
2019-03-31T18:00:29.945Z,9.41
2019-03-31T18:02:36.692Z,9.38
2019-03-31T18:04:43.490Z,9.33
2019-03-31T18:06:53.014Z,9.34
2019-03-31T18:09:01.249Z,9.31
2019-03-31T18:11:09.565Z,9.30
2019-03-31T18:13:16.222Z,9.29
2019-03-31T18:15:22.970Z,9.27
2019-03-31T18:17:29.728Z,9.32
2019-03-31T18:19:36.467Z,9.31
2019-03-31T18:21:43.130Z,9.32
2019-03-31T18:23:49.893Z,9.31
2019-03-31T18:25:56.556Z,9.30
2019-03-31T18:28:03.290Z,9.28
2019-03-31T18:30:11.756Z,9.24
2019-03-31T18:32:19.688Z,9.24
2019-03-31T18:34:26.629Z,9.21
2019-03-31T18:36:36.828Z,9.20
2019-03-31T18:38:43.032Z,9.18
2019-03-31T18:40:49.772Z,9.16
2019-03-31T18:42:56.611Z,9.15
2019-03-31T18:45:03.469Z,9.11
2019-03-31T18:47:11.785Z,9.07
2019-03-31T18:49:18.554Z,9.02
2019-03-31T18:51:26.997Z,8.99
2019-03-31T18:53:41.052Z,8.91
2019-03-31T18:55:49.460Z,8.88
2019-03-31T18:58:05.523Z,8.83
2019-03-31T19:00:14.305Z,8.76
2019-03-31T19:02:40.743Z,8.71
2019-03-31T19:04:50.707Z,8.64
2019-03-31T19:07:10.151Z,8.61
2019-03-31T19:09:18.711Z,8.61
2019-03-31T19:11:25.234Z,8.58
2019-03-31T19:13:54.498Z,8.53
2019-03-31T19:16:05.860Z,8.48
2019-03-31T19:18:15.823Z,8.42
2019-03-31T19:20:25.144Z,8.36
2019-03-31T19:22:39.283Z,8.36
2019-03-31T19:24:47.658Z,8.36
2019-03-31T19:27:00.011Z,8.32
2019-03-31T19:29:26.217Z,8.31
2019-03-31T19:31:37.904Z,8.27
2019-03-31T19:33:50.546Z,8.21
2019-03-31T19:35:57.122Z,8.12
2019-03-31T19:38:14.544Z,8.08
2019-03-31T19:40:30.314Z,8.03
2019-03-31T19:42:38.760Z,7.95
2019-03-31T19:44:53.419Z,7.88
2019-03-31T19:47:01.973Z,7.82
2019-03-31T19:49:15.148Z,7.75
2019-03-31T19:51:27.723Z,7.71
2019-03-31T19:53:37.416Z,7.67
2019-03-31T19:55:44.428Z,7.58
2019-03-31T19:57:58.498Z,7.48
2019-03-31T20:00:11.023Z,7.46
2019-03-31T20:02:20.081Z,7.40
2019-03-31T20:04:38.372Z,7.33
2019-03-31T20:06:57.165Z,7.26
2019-03-31T20:09:22.637Z,7.18
2019-03-31T20:11:31.086Z,7.12
2019-03-31T20:13:37.578Z,7.01
2019-03-31T20:15:45.997Z,6.90
2019-03-31T20:18:09.523Z,6.79
2019-03-31T20:20:34.052Z,6.66
2019-03-31T20:22:40.669Z,6.56
2019-03-31T20:24:51.895Z,6.44
2019-03-31T20:27:03.179Z,6.35
2019-03-31T20:29:16.407Z,6.23
2019-03-31T20:31:34.301Z,6.16
2019-03-31T20:33:58.787Z,6.07
2019-03-31T20:36:19.245Z,6.00
2019-03-31T20:38:28.963Z,5.92
2019-03-31T20:40:46.386Z,5.85
2019-03-31T20:42:57.796Z,5.78
2019-03-31T20:45:09.829Z,5.73
2019-03-31T20:47:16.602Z,5.69
2019-03-31T20:49:23.470Z,5.61
2019-03-31T20:51:30.556Z,5.54
2019-03-31T20:53:37.591Z,5.45
2019-03-31T20:55:44.406Z,5.36
2019-03-31T20:57:52.240Z,5.29
2019-03-31T20:59:59.014Z,5.23
2019-03-31T21:02:05.840Z,5.20
2019-03-31T21:04:12.649Z,5.14
2019-03-31T21:06:19.507Z,5.08
2019-03-31T21:08:26.343Z,5.06
2019-03-31T21:10:34.311Z,5.04
2019-03-31T21:12:41.023Z,5.02
2019-03-31T21:14:47.892Z,4.99
2019-03-31T21:16:54.598Z,4.96
2019-03-31T21:19:01.311Z,4.86
2019-03-31T21:21:08.263Z,4.78
2019-03-31T21:23:14.992Z,4.72
2019-03-31T21:25:21.711Z,4.64
2019-03-31T21:27:28.509Z,4.57
2019-03-31T21:29:36.552Z,4.51
2019-03-31T21:31:43.220Z,4.44
2019-03-31T21:33:49.977Z,4.39
2019-03-31T21:35:56.708Z,4.33
2019-03-31T21:38:03.788Z,4.26
2019-03-31T21:40:10.615Z,4.23
2019-03-31T21:42:19.251Z,4.18
2019-03-31T21:44:26.594Z,4.14
2019-03-31T21:46:33.287Z,4.10
2019-03-31T21:48:39.972Z,4.07
2019-03-31T21:50:47.320Z,4.05
2019-03-31T21:52:54.330Z,4.03
2019-03-31T21:55:01.079Z,4.01
2019-03-31T21:57:07.740Z,4.04
2019-03-31T21:59:14.502Z,3.99
2019-03-31T22:01:21.242Z,3.94
2019-03-31T22:03:28.070Z,3.91
2019-03-31T22:05:34.788Z,3.86
2019-03-31T22:07:41.530Z,3.84
2019-03-31T22:09:48.328Z,3.81
2019-03-31T22:11:55.030Z,3.79
2019-03-31T22:14:01.830Z,3.75
2019-03-31T22:16:08.571Z,3.71
2019-03-31T22:18:15.462Z,3.64
2019-03-31T22:20:22.195Z,3.59
2019-03-31T22:22:28.930Z,3.56
2019-03-31T22:24:35.689Z,3.53
2019-03-31T22:26:42.355Z,3.51
2019-03-31T22:28:49.279Z,3.45
2019-03-31T22:30:56.120Z,3.42
2019-03-31T22:33:02.789Z,3.35
2019-03-31T22:35:09.455Z,3.29
2019-03-31T22:37:16.142Z,3.24
2019-03-31T22:39:22.813Z,3.18
2019-03-31T22:41:29.478Z,3.13
2019-03-31T22:43:36.175Z,3.08
2019-03-31T22:45:42.840Z,3.03
2019-03-31T22:47:49.890Z,3.00
2019-03-31T22:49:58.445Z,2.96
2019-03-31T22:52:05.179Z,2.92
2019-03-31T22:54:11.849Z,2.88
2019-03-31T22:56:18.781Z,2.83
2019-03-31T22:58:26.320Z,2.80
2019-03-31T23:00:33.046Z,2.76
2019-03-31T23:02:39.810Z,2.73
2019-03-31T23:04:46.550Z,2.68
2019-03-31T23:06:53.210Z,2.62
2019-03-31T23:08:59.981Z,2.58
2019-03-31T23:11:06.653Z,2.54
2019-03-31T23:13:13.321Z,2.49
2019-03-31T23:15:20.008Z,2.46
2019-03-31T23:17:26.668Z,2.44
2019-03-31T23:19:33.522Z,2.43
2019-03-31T23:21:40.198Z,2.41
2019-03-31T23:23:46.861Z,2.38
2019-03-31T23:25:53.527Z,2.37
2019-03-31T23:28:00.217Z,2.33
2019-03-31T23:30:10.859Z,2.28
2019-03-31T23:32:17.582Z,2.26
2019-03-31T23:34:24.334Z,2.22
2019-03-31T23:36:30.995Z,2.20
2019-03-31T23:38:37.666Z,2.15
2019-03-31T23:40:44.367Z,2.13
2019-03-31T23:42:51.223Z,2.10
2019-03-31T23:47:08.518Z,2.08
2019-03-31T23:49:15.177Z,1.99
2019-03-31T23:51:21.836Z,1.96
2019-03-31T23:53:28.633Z,1.93
2019-03-31T23:55:35.371Z,1.90
2019-03-31T23:57:45.134Z,1.88
2019-03-31T23:59:52.283Z,1.83
